ALDN68 YBDG-YSNW
Flight info
| Callsign | ALDN68 |
|---|---|
| Flight time | 1h 14m |
| Altitude | 25000 |
| Route | DORSU DCT COR DCT COM DCT NAMA |
| Aircraft | PC21/L-SDFGTUVY/C |
Departure
| Time | 2026-04-21 01:48 |
|---|---|
| Airport | Bendigo Airport (YBDG) |
Arrival
| Time | 2026-04-21 03:03 |
|---|---|
| Airport | Naval Air Station Nowra - HMAS Albatross (YSNW) |
| Time | Latitude | Longitude | Altitude | Speed | Heading |
|---|---|---|---|---|---|
| 2026-04-21 01:34 | -36.73889 | 144.32667 | 699 ft | 0 kts | 320° |
| 2026-04-21 01:45 | -36.73874 | 144.32681 | 698 ft | 9 kts | 74° |
| 2026-04-21 01:45 | -36.73864 | 144.32832 | 700 ft | 17 kts | 93° |
| 2026-04-21 01:45 | -36.73916 | 144.32896 | 701 ft | 17 kts | 198° |
| 2026-04-21 01:45 | -36.73962 | 144.32889 | 693 ft | 12 kts | 180° |
| 2026-04-21 01:46 | -36.74056 | 144.32889 | 703 ft | 15 kts | 184° |
| 2026-04-21 01:46 | -36.74151 | 144.32880 | 705 ft | 0 kts | 186° |
| 2026-04-21 01:46 | -36.74195 | 144.32879 | 710 ft | 7 kts | 178° |
| 2026-04-21 01:46 | -36.74271 | 144.32882 | 713 ft | 6 kts | 152° |
| 2026-04-21 01:47 | -36.74281 | 144.32917 | 714 ft | 0 kts | 89° |
| 2026-04-21 01:47 | -36.74281 | 144.32920 | 715 ft | 4 kts | 88° |
| 2026-04-21 01:48 | -36.74271 | 144.32985 | 715 ft | 7 kts | 47° |
| 2026-04-21 01:48 | -36.74064 | 144.32996 | 703 ft | 73 kts | 1° |
| 2026-04-21 01:48 | -36.73287 | 144.33025 | 753 ft | 152 kts | 3° |
| 2026-04-21 01:48 | -36.72219 | 144.33274 | 1697 ft | 159 kts | 52° |
| 2026-04-21 01:49 | -36.72617 | 144.34561 | 2345 ft | 215 kts | 138° |
| 2026-04-21 01:49 | -36.73916 | 144.35911 | 2553 ft | 262 kts | 129° |
| 2026-04-21 01:49 | -36.74735 | 144.37993 | 3106 ft | 276 kts | 103° |
| 2026-04-21 01:49 | -36.75192 | 144.40366 | 3777 ft | 287 kts | 100° |
| 2026-04-21 01:50 | -36.75595 | 144.42831 | 4409 ft | 298 kts | 100° |
| 2026-04-21 01:50 | -36.75886 | 144.45424 | 4738 ft | 307 kts | 86° |
| 2026-04-21 01:50 | -36.75260 | 144.47970 | 4889 ft | 315 kts | 60° |
| 2026-04-21 01:50 | -36.74134 | 144.50386 | 4967 ft | 326 kts | 57° |
| 2026-04-21 01:51 | -36.72941 | 144.52796 | 5114 ft | 330 kts | 57° |
| 2026-04-21 01:51 | -36.71760 | 144.55206 | 5861 ft | 315 kts | 57° |
| 2026-04-21 01:51 | -36.70646 | 144.57495 | 6613 ft | 306 kts | 57° |
| 2026-04-21 01:51 | -36.69544 | 144.59764 | 7348 ft | 305 kts | 58° |
| 2026-04-21 01:52 | -36.68459 | 144.61997 | 8278 ft | 293 kts | 58° |
| 2026-04-21 01:52 | -36.66654 | 144.66247 | 10662 ft | 267 kts | 66° |
| 2026-04-21 01:52 | -36.65860 | 144.68293 | 11812 ft | 258 kts | 65° |
| 2026-04-21 01:53 | -36.65082 | 144.70248 | 12995 ft | 248 kts | 65° |
| 2026-04-21 01:53 | -36.64346 | 144.72152 | 14226 ft | 239 kts | 66° |
| 2026-04-21 01:53 | -36.63634 | 144.73972 | 15337 ft | 229 kts | 66° |
| 2026-04-21 01:53 | -36.62952 | 144.75707 | 16488 ft | 217 kts | 68° |
| 2026-04-21 01:54 | -36.62318 | 144.77328 | 17568 ft | 206 kts | 68° |
| 2026-04-21 01:54 | -36.61703 | 144.78902 | 18587 ft | 197 kts | 69° |
| 2026-04-21 01:54 | -36.61119 | 144.80395 | 19406 ft | 191 kts | 69° |
| 2026-04-21 01:54 | -36.60540 | 144.81884 | 19972 ft | 198 kts | 69° |
| 2026-04-21 01:55 | -36.59913 | 144.83483 | 20477 ft | 210 kts | 68° |
| 2026-04-21 01:55 | -36.59251 | 144.85159 | 20980 ft | 222 kts | 68° |
| 2026-04-21 01:55 | -36.58557 | 144.86923 | 21494 ft | 233 kts | 67° |
| 2026-04-21 01:55 | -36.57832 | 144.88772 | 22027 ft | 244 kts | 67° |
| 2026-04-21 01:56 | -36.57070 | 144.90713 | 22561 ft | 254 kts | 66° |
| 2026-04-21 01:56 | -36.56275 | 144.92727 | 23095 ft | 264 kts | 66° |
| 2026-04-21 01:56 | -36.55456 | 144.94807 | 23649 ft | 272 kts | 66° |
| 2026-04-21 01:56 | -36.54616 | 144.96947 | 24163 ft | 279 kts | 66° |
| 2026-04-21 01:57 | -36.53752 | 144.99137 | 24626 ft | 285 kts | 66° |
| 2026-04-21 01:57 | -36.52868 | 145.01378 | 25015 ft | 295 kts | 66° |
| 2026-04-21 01:57 | -36.51943 | 145.03722 | 25212 ft | 310 kts | 65° |
| 2026-04-21 01:57 | -36.50966 | 145.06196 | 25307 ft | 325 kts | 65° |
| 2026-04-21 01:58 | -36.49950 | 145.08765 | 25350 ft | 335 kts | 65° |
| 2026-04-21 01:58 | -36.48914 | 145.11384 | 25367 ft | 340 kts | 65° |
| 2026-04-21 01:58 | -36.47866 | 145.14030 | 25373 ft | 343 kts | 65° |
| 2026-04-21 01:58 | -36.46811 | 145.16693 | 25376 ft | 345 kts | 65° |
| 2026-04-21 01:59 | -36.45750 | 145.19370 | 25372 ft | 346 kts | 65° |
| 2026-04-21 01:59 | -36.44699 | 145.22017 | 25374 ft | 347 kts | 65° |
| 2026-04-21 01:59 | -36.43629 | 145.24713 | 25374 ft | 348 kts | 65° |
| 2026-04-21 01:59 | -36.42557 | 145.27408 | 25371 ft | 348 kts | 65° |
| 2026-04-21 02:00 | -36.41484 | 145.30104 | 25376 ft | 349 kts | 65° |
| 2026-04-21 02:00 | -36.40407 | 145.32807 | 25373 ft | 345 kts | 65° |
| 2026-04-21 02:00 | -36.39360 | 145.35436 | 25372 ft | 336 kts | 65° |
| 2026-04-21 02:00 | -36.38330 | 145.38019 | 25377 ft | 332 kts | 65° |
| 2026-04-21 02:01 | -36.37309 | 145.40575 | 25372 ft | 330 kts | 65° |
| 2026-04-21 02:01 | -36.36292 | 145.43121 | 25372 ft | 329 kts | 65° |
| 2026-04-21 02:01 | -36.35277 | 145.45661 | 25371 ft | 328 kts | 65° |
| 2026-04-21 02:01 | -36.34260 | 145.48202 | 25371 ft | 328 kts | 65° |
| 2026-04-21 02:02 | -36.33245 | 145.50738 | 25374 ft | 328 kts | 65° |
| 2026-04-21 02:02 | -36.32231 | 145.53265 | 25376 ft | 328 kts | 65° |
| 2026-04-21 02:02 | -36.31216 | 145.55796 | 25375 ft | 328 kts | 65° |
| 2026-04-21 02:02 | -36.30199 | 145.58331 | 25373 ft | 328 kts | 65° |
| 2026-04-21 02:03 | -36.29182 | 145.60861 | 25375 ft | 328 kts | 65° |
| 2026-04-21 02:03 | -36.28164 | 145.63392 | 25376 ft | 328 kts | 65° |
| 2026-04-21 02:03 | -36.27160 | 145.65888 | 25375 ft | 328 kts | 65° |
| 2026-04-21 02:03 | -36.26142 | 145.68418 | 25376 ft | 328 kts | 65° |
| 2026-04-21 02:04 | -36.25121 | 145.70949 | 25373 ft | 328 kts | 65° |
| 2026-04-21 02:04 | -36.24104 | 145.73474 | 25377 ft | 328 kts | 65° |
| 2026-04-21 02:04 | -36.23083 | 145.76001 | 25372 ft | 328 kts | 65° |
| 2026-04-21 02:04 | -36.22059 | 145.78538 | 25374 ft | 328 kts | 65° |
| 2026-04-21 02:05 | -36.21036 | 145.81068 | 25377 ft | 328 kts | 65° |
| 2026-04-21 02:05 | -36.20013 | 145.83595 | 25376 ft | 329 kts | 65° |
| 2026-04-21 02:05 | -36.18990 | 145.86122 | 25384 ft | 329 kts | 65° |
| 2026-04-21 02:05 | -36.17965 | 145.88652 | 25380 ft | 329 kts | 65° |
| 2026-04-21 02:06 | -36.16937 | 145.91187 | 25378 ft | 329 kts | 65° |
| 2026-04-21 02:06 | -36.15912 | 145.93713 | 25372 ft | 329 kts | 65° |
| 2026-04-21 02:06 | -36.14887 | 145.96235 | 25374 ft | 329 kts | 65° |
| 2026-04-21 02:06 | -36.13859 | 145.98766 | 25374 ft | 329 kts | 65° |
| 2026-04-21 02:07 | -36.12830 | 146.01295 | 25375 ft | 329 kts | 65° |
| 2026-04-21 02:07 | -36.11802 | 146.03821 | 25374 ft | 329 kts | 65° |
| 2026-04-21 02:07 | -36.10771 | 146.06349 | 25377 ft | 329 kts | 65° |
| 2026-04-21 02:07 | -36.09741 | 146.08876 | 25379 ft | 329 kts | 65° |
| 2026-04-21 02:08 | -36.08711 | 146.11402 | 25376 ft | 329 kts | 65° |
| 2026-04-21 02:08 | -36.07680 | 146.13925 | 25377 ft | 329 kts | 65° |
| 2026-04-21 02:08 | -36.06647 | 146.16452 | 25381 ft | 329 kts | 65° |
| 2026-04-21 02:08 | -36.05627 | 146.18947 | 25380 ft | 329 kts | 65° |
| 2026-04-21 02:09 | -36.04591 | 146.21479 | 25379 ft | 329 kts | 65° |
| 2026-04-21 02:09 | -36.03556 | 146.24003 | 25383 ft | 330 kts | 65° |
| 2026-04-21 02:09 | -36.02519 | 146.26534 | 25383 ft | 330 kts | 65° |
| 2026-04-21 02:09 | -36.01482 | 146.29062 | 25381 ft | 330 kts | 65° |
| 2026-04-21 02:10 | -36.00445 | 146.31588 | 25379 ft | 330 kts | 65° |
| 2026-04-21 02:10 | -35.99531 | 146.34165 | 25379 ft | 326 kts | 80° |
| 2026-04-21 02:10 | -35.99328 | 146.36926 | 25384 ft | 322 kts | 94° |
| 2026-04-21 02:10 | -35.99427 | 146.39688 | 25382 ft | 321 kts | 97° |
| 2026-04-21 02:11 | -35.99733 | 146.42399 | 25382 ft | 319 kts | 105° |
| 2026-04-21 02:11 | -36.00190 | 146.45082 | 25379 ft | 319 kts | 103° |
| 2026-04-21 02:11 | -36.00574 | 146.47784 | 25378 ft | 319 kts | 103° |
| 2026-04-21 02:11 | -36.00991 | 146.50483 | 25375 ft | 319 kts | 104° |
| 2026-04-21 02:12 | -36.01394 | 146.53171 | 25373 ft | 319 kts | 103° |
| 2026-04-21 02:12 | -36.01799 | 146.55872 | 25371 ft | 319 kts | 104° |
| 2026-04-21 02:12 | -36.02207 | 146.58569 | 25371 ft | 319 kts | 104° |
| 2026-04-21 02:12 | -36.02474 | 146.60354 | 25372 ft | 319 kts | 104° |
| 2026-04-21 02:13 | -36.02878 | 146.63048 | 25373 ft | 319 kts | 104° |
| 2026-04-21 02:13 | -36.03282 | 146.65744 | 25375 ft | 319 kts | 104° |
| 2026-04-21 02:13 | -36.03684 | 146.68439 | 25378 ft | 319 kts | 104° |
| 2026-04-21 02:13 | -36.04088 | 146.71138 | 25376 ft | 319 kts | 104° |
| 2026-04-21 02:14 | -36.04490 | 146.73833 | 25376 ft | 319 kts | 104° |
| 2026-04-21 02:14 | -36.04891 | 146.76534 | 25376 ft | 319 kts | 104° |
| 2026-04-21 02:14 | -36.05293 | 146.79234 | 25380 ft | 319 kts | 104° |
| 2026-04-21 02:14 | -36.05693 | 146.81929 | 25374 ft | 319 kts | 104° |
| 2026-04-21 02:15 | -36.06092 | 146.84626 | 25379 ft | 319 kts | 104° |
| 2026-04-21 02:15 | -36.06492 | 146.87328 | 25384 ft | 319 kts | 104° |
| 2026-04-21 02:15 | -36.06891 | 146.90028 | 25380 ft | 320 kts | 104° |
| 2026-04-21 02:15 | -36.07290 | 146.92734 | 25379 ft | 320 kts | 104° |
| 2026-04-21 02:16 | -36.07687 | 146.95431 | 25377 ft | 319 kts | 104° |
| 2026-04-21 02:16 | -36.08084 | 146.98135 | 25374 ft | 319 kts | 104° |
| 2026-04-21 02:16 | -36.08480 | 147.00835 | 25376 ft | 319 kts | 104° |
| 2026-04-21 02:16 | -36.08876 | 147.03539 | 25374 ft | 319 kts | 104° |
| 2026-04-21 02:17 | -36.09271 | 147.06238 | 25378 ft | 319 kts | 104° |
| 2026-04-21 02:17 | -36.09665 | 147.08939 | 25378 ft | 319 kts | 104° |
| 2026-04-21 02:17 | -36.10059 | 147.11640 | 25374 ft | 319 kts | 104° |
| 2026-04-21 02:17 | -36.10452 | 147.14342 | 25380 ft | 319 kts | 104° |
| 2026-04-21 02:18 | -36.10844 | 147.17041 | 25373 ft | 319 kts | 104° |
| 2026-04-21 02:18 | -36.11237 | 147.19746 | 25372 ft | 319 kts | 104° |
| 2026-04-21 02:18 | -36.11631 | 147.22470 | 25378 ft | 319 kts | 104° |
| 2026-04-21 02:18 | -36.12019 | 147.25156 | 25383 ft | 319 kts | 104° |
| 2026-04-21 02:19 | -36.12409 | 147.27860 | 25382 ft | 320 kts | 104° |
| 2026-04-21 02:19 | -36.12799 | 147.30560 | 25375 ft | 320 kts | 104° |
| 2026-04-21 02:19 | -36.13188 | 147.33268 | 25375 ft | 319 kts | 104° |
| 2026-04-21 02:19 | -36.13577 | 147.35971 | 25378 ft | 319 kts | 104° |
| 2026-04-21 02:20 | -36.13964 | 147.38681 | 25378 ft | 319 kts | 104° |
| 2026-04-21 02:20 | -36.14353 | 147.41389 | 25379 ft | 319 kts | 104° |
| 2026-04-21 02:20 | -36.14734 | 147.44058 | 25373 ft | 320 kts | 104° |
| 2026-04-21 02:20 | -36.15120 | 147.46765 | 25374 ft | 319 kts | 104° |
| 2026-04-21 02:21 | -36.15510 | 147.49506 | 25369 ft | 319 kts | 104° |
| 2026-04-21 02:21 | -36.15889 | 147.52172 | 25367 ft | 319 kts | 104° |
| 2026-04-21 02:21 | -36.16273 | 147.54876 | 25365 ft | 319 kts | 104° |
| 2026-04-21 02:21 | -36.16657 | 147.57583 | 25368 ft | 319 kts | 104° |
| 2026-04-21 02:22 | -36.17044 | 147.60321 | 25370 ft | 319 kts | 104° |
| 2026-04-21 02:22 | -36.17421 | 147.62990 | 25372 ft | 319 kts | 104° |
| 2026-04-21 02:22 | -36.17803 | 147.65697 | 25372 ft | 319 kts | 104° |
| 2026-04-21 02:22 | -36.18183 | 147.68404 | 25374 ft | 319 kts | 104° |
| 2026-04-21 02:23 | -36.18564 | 147.71108 | 25367 ft | 319 kts | 104° |
| 2026-04-21 02:23 | -36.18943 | 147.73813 | 25358 ft | 319 kts | 104° |
| 2026-04-21 02:23 | -36.19321 | 147.76513 | 25361 ft | 319 kts | 104° |
| 2026-04-21 02:23 | -36.19699 | 147.79218 | 25354 ft | 319 kts | 104° |
| 2026-04-21 02:24 | -36.20077 | 147.81924 | 25363 ft | 318 kts | 104° |
| 2026-04-21 02:24 | -36.20453 | 147.84623 | 25363 ft | 318 kts | 104° |
| 2026-04-21 02:24 | -36.20829 | 147.87328 | 25364 ft | 318 kts | 104° |
| 2026-04-21 02:24 | -36.21203 | 147.90023 | 25361 ft | 318 kts | 104° |
| 2026-04-21 02:25 | -36.21578 | 147.92724 | 25362 ft | 318 kts | 104° |
| 2026-04-21 02:25 | -36.21952 | 147.95427 | 25363 ft | 318 kts | 104° |
| 2026-04-21 02:25 | -36.22324 | 147.98126 | 25364 ft | 318 kts | 104° |
| 2026-04-21 02:25 | -36.22696 | 148.00823 | 25360 ft | 318 kts | 104° |
| 2026-04-21 02:26 | -36.23068 | 148.03519 | 25364 ft | 318 kts | 104° |
| 2026-04-21 02:26 | -36.23438 | 148.06220 | 25364 ft | 318 kts | 104° |
| 2026-04-21 02:26 | -36.23809 | 148.08917 | 25368 ft | 318 kts | 104° |
| 2026-04-21 02:26 | -36.24179 | 148.11621 | 25370 ft | 318 kts | 104° |
| 2026-04-21 02:27 | -36.24548 | 148.14324 | 25370 ft | 318 kts | 104° |
| 2026-04-21 02:27 | -36.24917 | 148.17027 | 25371 ft | 318 kts | 104° |
| 2026-04-21 02:27 | -36.25285 | 148.19727 | 25371 ft | 318 kts | 104° |
| 2026-04-21 02:27 | -36.25653 | 148.22429 | 25369 ft | 318 kts | 104° |
| 2026-04-21 02:28 | -36.26020 | 148.25138 | 25374 ft | 318 kts | 104° |
| 2026-04-21 02:28 | -36.26386 | 148.27840 | 25379 ft | 318 kts | 104° |
| 2026-04-21 02:28 | -36.26753 | 148.30547 | 25381 ft | 318 kts | 104° |
| 2026-04-21 02:28 | -36.27117 | 148.33248 | 25383 ft | 318 kts | 104° |
| 2026-04-21 02:29 | -36.27481 | 148.35950 | 25381 ft | 318 kts | 104° |
| 2026-04-21 02:29 | -36.27846 | 148.38663 | 25381 ft | 318 kts | 104° |
| 2026-04-21 02:29 | -36.28210 | 148.41368 | 25383 ft | 318 kts | 104° |
| 2026-04-21 02:29 | -36.28572 | 148.44071 | 25391 ft | 319 kts | 104° |
| 2026-04-21 02:30 | -36.28935 | 148.46782 | 25392 ft | 318 kts | 104° |
| 2026-04-21 02:30 | -36.29297 | 148.49491 | 25386 ft | 318 kts | 104° |
| 2026-04-21 02:30 | -36.29658 | 148.52196 | 25391 ft | 318 kts | 104° |
| 2026-04-21 02:30 | -36.30018 | 148.54901 | 25395 ft | 318 kts | 104° |
| 2026-04-21 02:31 | -36.30377 | 148.57609 | 25401 ft | 318 kts | 104° |
| 2026-04-21 02:31 | -36.30738 | 148.60322 | 25390 ft | 318 kts | 104° |
| 2026-04-21 02:31 | -36.31096 | 148.63029 | 25389 ft | 318 kts | 104° |
| 2026-04-21 02:31 | -36.31449 | 148.65699 | 25393 ft | 318 kts | 104° |
| 2026-04-21 02:32 | -36.31811 | 148.68441 | 25388 ft | 318 kts | 104° |
| 2026-04-21 02:32 | -36.32162 | 148.71111 | 25389 ft | 318 kts | 104° |
| 2026-04-21 02:32 | -36.32518 | 148.73816 | 25386 ft | 318 kts | 104° |
| 2026-04-21 02:32 | -36.32873 | 148.76520 | 25388 ft | 318 kts | 103° |
| 2026-04-21 02:33 | -36.33227 | 148.79224 | 25386 ft | 318 kts | 104° |
| 2026-04-21 02:33 | -36.33582 | 148.81937 | 25381 ft | 318 kts | 104° |
| 2026-04-21 02:33 | -36.33934 | 148.84638 | 25390 ft | 317 kts | 104° |
| 2026-04-21 02:33 | -36.34287 | 148.87342 | 25386 ft | 318 kts | 104° |
| 2026-04-21 02:34 | -36.34637 | 148.90040 | 25388 ft | 318 kts | 103° |
| 2026-04-21 02:34 | -36.34923 | 148.92768 | 25391 ft | 319 kts | 99° |
| 2026-04-21 02:34 | -36.35015 | 148.95531 | 25386 ft | 322 kts | 94° |
| 2026-04-21 02:34 | -36.34956 | 148.98306 | 25390 ft | 322 kts | 92° |
| 2026-04-21 02:35 | -36.34741 | 149.01085 | 25391 ft | 326 kts | 84° |
| 2026-04-21 02:35 | -36.34337 | 149.03855 | 25387 ft | 326 kts | 85° |
| 2026-04-21 02:35 | -36.34011 | 149.06619 | 25392 ft | 325 kts | 86° |
| 2026-04-21 02:35 | -36.33653 | 149.09401 | 25394 ft | 325 kts | 85° |
| 2026-04-21 02:36 | -36.33300 | 149.12174 | 25391 ft | 325 kts | 86° |
| 2026-04-21 02:36 | -36.32951 | 149.14947 | 25393 ft | 325 kts | 85° |
| 2026-04-21 02:36 | -36.32596 | 149.17716 | 25394 ft | 325 kts | 85° |
| 2026-04-21 02:36 | -36.32244 | 149.20485 | 25395 ft | 325 kts | 85° |
| 2026-04-21 02:37 | -36.31889 | 149.23258 | 25397 ft | 326 kts | 85° |
| 2026-04-21 02:37 | -36.31533 | 149.26034 | 25394 ft | 326 kts | 85° |
| 2026-04-21 02:37 | -36.31166 | 149.28798 | 25401 ft | 325 kts | 85° |
| 2026-04-21 02:37 | -36.30823 | 149.31574 | 25402 ft | 325 kts | 86° |
| 2026-04-21 02:38 | -36.30468 | 149.34349 | 25405 ft | 326 kts | 85° |
| 2026-04-21 02:38 | -36.30106 | 149.37119 | 25397 ft | 326 kts | 86° |
| 2026-04-21 02:38 | -36.29751 | 149.39892 | 25396 ft | 326 kts | 85° |
| 2026-04-21 02:38 | -36.29389 | 149.42662 | 25396 ft | 326 kts | 85° |
| 2026-04-21 02:39 | -36.29028 | 149.45438 | 25398 ft | 326 kts | 85° |
| 2026-04-21 02:39 | -36.28668 | 149.48209 | 25401 ft | 326 kts | 85° |
| 2026-04-21 02:39 | -36.28306 | 149.50983 | 25402 ft | 326 kts | 85° |
| 2026-04-21 02:39 | -36.27949 | 149.53716 | 25407 ft | 326 kts | 85° |
| 2026-04-21 02:40 | -36.27586 | 149.56491 | 25405 ft | 326 kts | 85° |
| 2026-04-21 02:40 | -36.27222 | 149.59265 | 25405 ft | 326 kts | 85° |
| 2026-04-21 02:40 | -36.26857 | 149.62039 | 25414 ft | 326 kts | 85° |
| 2026-04-21 02:40 | -36.26492 | 149.64797 | 25107 ft | 319 kts | 86° |
| 2026-04-21 02:41 | -36.26140 | 149.67499 | 23874 ft | 321 kts | 86° |
| 2026-04-21 02:41 | -36.25776 | 149.70279 | 22297 ft | 333 kts | 85° |
| 2026-04-21 02:41 | -36.25394 | 149.73119 | 20805 ft | 336 kts | 84° |
| 2026-04-21 02:41 | -36.25016 | 149.75991 | 19369 ft | 337 kts | 84° |
| 2026-04-21 02:42 | -36.24637 | 149.78846 | 17883 ft | 335 kts | 84° |
| 2026-04-21 02:42 | -36.24258 | 149.81686 | 16370 ft | 333 kts | 83° |
| 2026-04-21 02:42 | -36.23883 | 149.84502 | 14929 ft | 331 kts | 83° |
| 2026-04-21 02:42 | -36.23508 | 149.87306 | 13439 ft | 329 kts | 83° |
| 2026-04-21 02:43 | -36.23136 | 149.90093 | 11928 ft | 326 kts | 83° |
| 2026-04-21 02:43 | -36.22765 | 149.92853 | 10489 ft | 324 kts | 83° |
| 2026-04-21 02:43 | -36.22397 | 149.95596 | 8949 ft | 322 kts | 83° |
| 2026-04-21 02:43 | -36.22030 | 149.98320 | 7467 ft | 320 kts | 83° |
| 2026-04-21 02:44 | -36.21665 | 150.01035 | 5973 ft | 318 kts | 83° |
| 2026-04-21 02:44 | -36.21305 | 150.03720 | 4635 ft | 313 kts | 82° |
| 2026-04-21 02:44 | -36.20941 | 150.06279 | 3876 ft | 299 kts | 80° |
| 2026-04-21 02:44 | -36.20160 | 150.08766 | 2804 ft | 322 kts | 62° |
| 2026-04-21 02:45 | -36.18675 | 150.10869 | 2163 ft | 327 kts | 40° |
| 2026-04-21 02:45 | -36.16656 | 150.12153 | 1696 ft | 327 kts | 18° |
| 2026-04-21 02:45 | -36.14418 | 150.12645 | 1162 ft | 328 kts | 5° |
| 2026-04-21 02:45 | -36.12115 | 150.12992 | 548 ft | 334 kts | 15° |
| 2026-04-21 02:46 | -36.09921 | 150.14007 | 317 ft | 343 kts | 18° |
| 2026-04-21 02:46 | -36.07546 | 150.14007 | 135 ft | 347 kts | 358° |
| 2026-04-21 02:46 | -36.05197 | 150.14574 | 155 ft | 342 kts | 17° |
| 2026-04-21 02:46 | -36.02943 | 150.15504 | 111 ft | 344 kts | 24° |
| 2026-04-21 02:47 | -36.00724 | 150.16559 | 175 ft | 343 kts | 8° |
| 2026-04-21 02:47 | -35.98342 | 150.16411 | 163 ft | 344 kts | 354° |
| 2026-04-21 02:47 | -35.95954 | 150.16363 | 216 ft | 344 kts | 4° |
| 2026-04-21 02:47 | -35.93578 | 150.16393 | 139 ft | 346 kts | 346° |
| 2026-04-21 02:48 | -35.91214 | 150.16237 | 97 ft | 346 kts | 359° |
| 2026-04-21 02:48 | -35.88979 | 150.15241 | 146 ft | 343 kts | 0° |
| 2026-04-21 02:48 | -35.86939 | 150.16649 | 80 ft | 341 kts | 49° |
| 2026-04-21 02:48 | -35.86046 | 150.19206 | 195 ft | 335 kts | 65° |
| 2026-04-21 02:49 | -35.84840 | 150.21366 | 161 ft | 339 kts | 55° |
| 2026-04-21 02:49 | -35.83522 | 150.23609 | 140 ft | 340 kts | 52° |
| 2026-04-21 02:49 | -35.81437 | 150.24890 | 162 ft | 346 kts | 14° |
| 2026-04-21 02:49 | -35.79101 | 150.25648 | 116 ft | 346 kts | 17° |
| 2026-04-21 02:50 | -35.76834 | 150.26602 | 215 ft | 344 kts | 20° |
| 2026-04-21 02:50 | -35.74579 | 150.27602 | 234 ft | 343 kts | 20° |
| 2026-04-21 02:50 | -35.72331 | 150.28593 | 323 ft | 344 kts | 20° |
| 2026-04-21 02:50 | -35.70073 | 150.29579 | 274 ft | 348 kts | 21° |
| 2026-04-21 02:51 | -35.67810 | 150.30686 | 278 ft | 343 kts | 22° |
| 2026-04-21 02:51 | -35.65576 | 150.31727 | 172 ft | 347 kts | 22° |
| 2026-04-21 02:51 | -35.63588 | 150.33232 | 297 ft | 337 kts | 39° |
| 2026-04-21 02:51 | -35.61271 | 150.33840 | 146 ft | 346 kts | 8° |
| 2026-04-21 02:52 | -35.59402 | 150.35487 | 258 ft | 339 kts | 42° |
| 2026-04-21 02:52 | -35.57566 | 150.37327 | 67 ft | 346 kts | 40° |
| 2026-04-21 02:52 | -35.55700 | 150.39180 | 155 ft | 341 kts | 40° |
| 2026-04-21 02:52 | -35.53855 | 150.40998 | 268 ft | 339 kts | 44° |
| 2026-04-21 02:53 | -35.51882 | 150.41786 | 346 ft | 336 kts | 315° |
| 2026-04-21 02:53 | -35.50112 | 150.40025 | 711 ft | 333 kts | 340° |
| 2026-04-21 02:53 | -35.47757 | 150.40191 | 297 ft | 347 kts | 17° |
| 2026-04-21 02:53 | -35.45585 | 150.41425 | 299 ft | 345 kts | 28° |
| 2026-04-21 02:54 | -35.43467 | 150.42830 | 177 ft | 345 kts | 30° |
| 2026-04-21 02:54 | -35.41373 | 150.44276 | 152 ft | 345 kts | 32° |
| 2026-04-21 02:54 | -35.39147 | 150.45210 | 151 ft | 345 kts | 32° |
| 2026-04-21 02:54 | -35.37717 | 150.47492 | 180 ft | 340 kts | 58° |
| 2026-04-21 02:55 | -35.36165 | 150.49618 | 288 ft | 339 kts | 12° |
| 2026-04-21 02:55 | -35.33864 | 150.49142 | 255 ft | 343 kts | 343° |
| 2026-04-21 02:55 | -35.31501 | 150.48559 | 148 ft | 347 kts | 348° |
| 2026-04-21 02:55 | -35.29157 | 150.48803 | 165 ft | 345 kts | 28° |
| 2026-04-21 02:56 | -35.27754 | 150.51021 | 227 ft | 335 kts | 70° |
| 2026-04-21 02:56 | -35.24314 | 150.54862 | 475 ft | 339 kts | 17° |
| 2026-04-21 02:56 | -35.21983 | 150.55042 | 184 ft | 347 kts | 11° |
| 2026-04-21 02:57 | -35.20696 | 150.56113 | 182 ft | 342 kts | 52° |
| 2026-04-21 02:57 | -35.19605 | 150.58651 | 85 ft | 341 kts | 67° |
| 2026-04-21 02:57 | -35.18341 | 150.60991 | 1020 ft | 312 kts | 43° |
| 2026-04-21 02:57 | -35.16424 | 150.62137 | 1708 ft | 320 kts | 14° |
| 2026-04-21 02:58 | -35.14135 | 150.62471 | 1434 ft | 343 kts | 4° |
| 2026-04-21 02:58 | -35.12056 | 150.62689 | 1864 ft | 337 kts | 5° |
| 2026-04-21 02:58 | -35.09654 | 150.62977 | 1563 ft | 353 kts | 7° |
| 2026-04-21 02:58 | -35.07214 | 150.63321 | 1487 ft | 352 kts | 8° |
| 2026-04-21 02:59 | -35.04771 | 150.63709 | 1384 ft | 353 kts | 8° |
| 2026-04-21 02:59 | -35.02343 | 150.64120 | 1369 ft | 352 kts | 8° |
| 2026-04-21 02:59 | -34.99919 | 150.64521 | 1270 ft | 351 kts | 7° |
| 2026-04-21 02:59 | -34.97604 | 150.63944 | 1367 ft | 345 kts | 324° |
| 2026-04-21 03:00 | -34.96130 | 150.61714 | 1040 ft | 345 kts | 295° |
| 2026-04-21 03:00 | -34.95249 | 150.58982 | 856 ft | 344 kts | 284° |
| 2026-04-21 03:00 | -34.94886 | 150.56134 | 784 ft | 339 kts | 273° |
| 2026-04-21 03:00 | -34.94709 | 150.53310 | 861 ft | 315 kts | 250° |
| 2026-04-21 03:01 | -34.94733 | 150.53221 | 871 ft | 307 kts | 244° |
| 2026-04-21 03:01 | -34.94928 | 150.52941 | 892 ft | 266 kts | 206° |
| 2026-04-21 03:01 | -34.95586 | 150.54038 | 872 ft | 176 kts | 97° |
| 2026-04-21 03:02 | -34.95605 | 150.55230 | 950 ft | 122 kts | 98° |
| 2026-04-21 03:02 | -34.95019 | 150.55717 | 750 ft | 144 kts | 303° |
| 2026-04-21 03:02 | -34.94920 | 150.54663 | 385 ft | 115 kts | 273° |
| 2026-04-21 03:02 | -34.94865 | 150.53854 | 363 ft | 73 kts | 274° |
| 2026-04-21 03:03 | -34.94855 | 150.53553 | 363 ft | 1 kts | 292° |
| 2026-04-21 03:03 | -34.94848 | 150.53551 | 368 ft | 5 kts | 34° |
| 2026-04-21 03:03 | -34.94855 | 150.53722 | 360 ft | 24 kts | 97° |
| 2026-04-21 03:03 | -34.94868 | 150.53932 | 362 ft | 24 kts | 83° |
| 2026-04-21 03:04 | -34.94789 | 150.53997 | 366 ft | 15 kts | 16° |
| 2026-04-21 03:04 | -34.94710 | 150.54069 | 362 ft | 15 kts | 43° |
| 2026-04-21 03:04 | -34.94617 | 150.54180 | 367 ft | 19 kts | 42° |
| 2026-04-21 03:04 | -34.94516 | 150.54299 | 363 ft | 21 kts | 44° |
| 2026-04-21 03:05 | -34.94410 | 150.54420 | 363 ft | 21 kts | 42° |
| 2026-04-21 03:05 | -34.94294 | 150.54537 | 362 ft | 23 kts | 44° |
| 2026-04-21 03:05 | -34.94182 | 150.54666 | 362 ft | 22 kts | 44° |
| 2026-04-21 03:05 | -34.94072 | 150.54797 | 362 ft | 20 kts | 45° |
| 2026-04-21 03:06 | -34.94042 | 150.54934 | 366 ft | 17 kts | 61° |
| 2026-04-21 03:06 | -34.94004 | 150.54944 | 366 ft | 0 kts | 317° |